Home > Products > Valid Products > TAF

000
FTUS45 KLKN 262320
TAFELY
TAF
KELY 262320Z 2700/2724 18008KT P6SM SCT130 BKN200
     FM270600 18007KT P6SM SCT060 BKN100
     FM271200 17010KT P6SM VCSH SCT030 BKN050
     FM271800 17013G23KT P6SM -RA OVC030=



000
FTUS45 KLKN 262320
TAFEKO
TAF
KEKO 262320Z 2700/2724 07005KT P6SM SCT200
     FM270600 VRB06KT P6SM SCT100 BKN150
     FM271200 17008KT P6SM VCSH SCT050 BKN100
     FM271800 22008KT P6SM VCSH SCT020 OVC035=



000
FTUS45 KLKN 262320
TAFTPH
TAF
KTPH 262320Z 2700/2724 16008KT P6SM BKN250
     FM270600 35006KT P6SM -RA BKN040
     FM271200 02007KT P6SM -RA OVC020
     FM271900 25008KT P6SM -RA OVC025=



000
FTUS45 KLKN 262320
TAFWMC
TAF
KWMC 262320Z 2700/2724 08007KT P6SM FEW150 SCT250
     FM270600 VRB04KT P6SM SCT150 BKN200
     FM271200 VRB04KT P6SM SCT080 BKN150
     FM271800 20006KT P6SM VCSH SCT040 BKN060=



000
FTUS45 KLKN 262320
TAFEKO
TAF
KEKO 262320Z 2700/2724 07005KT P6SM SCT200
     FM270600 VRB06KT P6SM SCT100 BKN150
     FM271200 17008KT P6SM VCSH SCT050 BKN100
     FM271800 22008KT P6SM VCSH SCT020 OVC035=



000
FTUS45 KLKN 262320
TAFWMC
TAF
KWMC 262320Z 2700/2724 08007KT P6SM FEW150 SCT250
     FM270600 VRB04KT P6SM SCT150 BKN200
     FM271200 VRB04KT P6SM SCT080 BKN150
     FM271800 20006KT P6SM VCSH SCT040 BKN060=



000
FTUS45 KLKN 262320
TAFTPH
TAF
KTPH 262320Z 2700/2724 16008KT P6SM BKN250
     FM270600 35006KT P6SM -RA BKN040
     FM271200 02007KT P6SM -RA OVC020
     FM271900 25008KT P6SM -RA OVC025=



000
FTUS45 KLKN 262320
TAFELY
TAF
KELY 262320Z 2700/2724 18008KT P6SM SCT130 BKN200
     FM270600 18007KT P6SM SCT060 BKN100
     FM271200 17010KT P6SM VCSH SCT030 BKN050
     FM271800 17013G23KT P6SM -RA OVC030=



000
FTUS45 KLKN 261720
TAFEKO
TAF
KEKO 261720Z 2618/2718 07005KT P6SM SKC=



000
FTUS45 KLKN 261720
TAFTPH
TAF
KTPH 261720Z 2618/2718 36009KT P6SM SCT250
     FM261800 16008KT P6SM BKN250
     FM270600 35006KT P6SM -RA BKN040=



000
FTUS45 KLKN 261720
TAFELY
TAF
KELY 261720Z 2618/2718 18008KT P6SM FEW250=



000
FTUS45 KLKN 261720
TAFWMC
TAF
KWMC 261720Z 2618/2718 06008KT P6SM FEW250=



000
FTUS45 KLKN 261720
TAFTPH
TAF
KTPH 261720Z 2618/2718 36009KT P6SM SCT250
     FM261800 16008KT P6SM BKN250
     FM270600 35006KT P6SM -RA BKN040=



000
FTUS45 KLKN 261720
TAFELY
TAF
KELY 261720Z 2618/2718 18008KT P6SM FEW250=



000
FTUS45 KLKN 261720
TAFWMC
TAF
KWMC 261720Z 2618/2718 06008KT P6SM FEW250=



000
FTUS45 KLKN 261720
TAFEKO
TAF
KEKO 261720Z 2618/2718 07005KT P6SM SKC=



000
FTUS45 KLKN 261132
TAFWMC
TAF
KWMC 261132Z 2612/2712 06008KT P6SM FEW250=



000
FTUS45 KLKN 261132
TAFEKO
TAF
KEKO 261132Z 2612/2712 07005KT P6SM SKC=



000
FTUS45 KLKN 261132
TAFELY
TAF
KELY 261132Z 2612/2712 18008KT P6SM FEW250=



000
FTUS45 KLKN 261132
TAFTPH
TAF
KTPH 261132Z 2612/2712 36009KT P6SM SCT250
     FM261800 16008KT P6SM BKN250
     FM270600 35006KT P6SM -RA BKN040=



000
FTUS45 KLKN 261132
TAFELY
TAF
KELY 261132Z 2612/2712 18008KT P6SM FEW250=



000
FTUS45 KLKN 261132
TAFTPH
TAF
KTPH 261132Z 2612/2712 36009KT P6SM SCT250
     FM261800 16008KT P6SM BKN250
     FM270600 35006KT P6SM -RA BKN040=



000
FTUS45 KLKN 261132
TAFEKO
TAF
KEKO 261132Z 2612/2712 07005KT P6SM SKC=



000
FTUS45 KLKN 261132
TAFWMC
TAF
KWMC 261132Z 2612/2712 06008KT P6SM FEW250=



000
FTUS45 KLKN 260520
TAFWMC
TAF
KWMC 260520Z 2606/2706 VRB06KT P6SM SCT250=



000
FTUS45 KLKN 260520
TAFEKO
TAF
KEKO 260520Z 2606/2706 VRB06KT P6SM SCT250=



000
FTUS45 KLKN 260520
TAFTPH
TAF
KTPH 260520Z 2606/2706 01008KT P6SM SCT250
     FM261600 VRB06KT P6SM FEW200 BKN250
     FM262100 19010KT P6SM SCT150 BKN200
     FM270200 VRB06KT P6SM SCT070 BKN090=



000
FTUS45 KLKN 260520
TAFELY
TAF
KELY 260520Z 2606/2706 17006KT P6SM FEW250=



000
FTUS45 KLKN 260520
TAFELY
TAF
KELY 260520Z 2606/2706 17006KT P6SM FEW250=



000
FTUS45 KLKN 260520
TAFTPH
TAF
KTPH 260520Z 2606/2706 01008KT P6SM SCT250
     FM261600 VRB06KT P6SM FEW200 BKN250
     FM262100 19010KT P6SM SCT150 BKN200
     FM270200 VRB06KT P6SM SCT070 BKN090=



000
FTUS45 KLKN 260520
TAFEKO
TAF
KEKO 260520Z 2606/2706 VRB06KT P6SM SCT250=



000
FTUS45 KLKN 260520
TAFWMC
TAF
KWMC 260520Z 2606/2706 VRB06KT P6SM SCT250=



000
FTUS45 KLKN 260004 AAA
TAFTPH
TAF AMD
KTPH 260004Z 2600/2624 VRB06KT P6SM SKC=



000
FTUS45 KLKN 260004 AAA
TAFTPH
TAF AMD
KTPH 260004Z 2600/2624 VRB06KT P6SM SKC=



000
FTUS45 KLKN 252320
TAFTPH
TAF
KTPH 252320Z 2600/2624 35009KT P6SM SKC=



000
FTUS45 KLKN 252320
TAFWMC
TAF
KWMC 252320Z 2600/2624 VRB05KT P6SM FEW250=



000
FTUS45 KLKN 252320
TAFTPH
TAF
KTPH 252320Z 2600/2624 35009KT P6SM SKC=



000
FTUS45 KLKN 252320
TAFEKO
TAF
KEKO 252320Z 2600/2624 VRB05KT P6SM FEW250=



000
FTUS45 KLKN 252320
TAFELY
TAF
KELY 252320Z 2600/2624 VRB06KT P6SM SKC=



000
FTUS45 KLKN 252320
TAFWMC
TAF
KWMC 252320Z 2600/2624 VRB05KT P6SM FEW250=



000
FTUS45 KLKN 252320
TAFELY
TAF
KELY 252320Z 2600/2624 VRB06KT P6SM SKC=



000
FTUS45 KLKN 252320
TAFEKO
TAF
KEKO 252320Z 2600/2624 VRB05KT P6SM FEW250=



000
FTUS45 KLKN 251720
TAFWMC
TAF
KWMC 251720Z 2518/2618 VRB05KT P6SM FEW250=



000
FTUS45 KLKN 251720
TAFEKO
TAF
KEKO 251720Z 2518/2618 VRB05KT P6SM FEW250=



000
FTUS45 KLKN 251720
TAFTPH
TAF
KTPH 251720Z 2518/2618 35009KT P6SM SKC=



000
FTUS45 KLKN 251720
TAFWMC
TAF
KWMC 251720Z 2518/2618 VRB05KT P6SM FEW250=



000
FTUS45 KLKN 251720
TAFTPH
TAF
KTPH 251720Z 2518/2618 35009KT P6SM SKC=



000
FTUS45 KLKN 251720
TAFELY
TAF
KELY 251720Z 2518/2618 VRB06KT P6SM SKC=



000
FTUS45 KLKN 251720
TAFEKO
TAF
KEKO 251720Z 2518/2618 VRB05KT P6SM FEW250=



000
FTUS45 KLKN 251720
TAFELY
TAF
KELY 251720Z 2518/2618 VRB06KT P6SM SKC=



000
FTUS45 KLKN 251120
TAFWMC
TAF
KWMC 251120Z 2512/2612 VRB05KT P6SM FEW250=



000
FTUS45 KLKN 251120
TAFTPH
TAF
KTPH 251120Z 2512/2612 35009KT P6SM SKC=



000
FTUS45 KLKN 251120
TAFELY
TAF
KELY 251120Z 2512/2612 VRB06KT P6SM SKC=



000
FTUS45 KLKN 251120
TAFTPH
TAF
KTPH 251120Z 2512/2612 35009KT P6SM SKC=



000
FTUS45 KLKN 251120
TAFELY
TAF
KELY 251120Z 2512/2612 VRB06KT P6SM SKC=



000
FTUS45 KLKN 251120
TAFEKO
TAF
KEKO 251120Z 2512/2612 VRB05KT P6SM FEW250=



000
FTUS45 KLKN 251120
TAFEKO
TAF
KEKO 251120Z 2512/2612 VRB05KT P6SM FEW250=



000
FTUS45 KLKN 251120
TAFWMC
TAF
KWMC 251120Z 2512/2612 VRB05KT P6SM FEW250=



000
FTUS45 KLKN 250520
TAFWMC
TAF
KWMC 250520Z 2506/2606 VRB06KT P6SM FEW250=



000
FTUS45 KLKN 250520
TAFTPH
TAF
KTPH 250520Z 2506/2606 VRB06KT P6SM SKC=



000
FTUS45 KLKN 250520
TAFELY
TAF
KELY 250520Z 2506/2606 VRB06KT P6SM FEW250=



000
FTUS45 KLKN 250520
TAFEKO
TAF
KEKO 250520Z 2506/2606 VRB06KT P6SM FEW250=



000
FTUS45 KLKN 250520
TAFWMC
TAF
KWMC 250520Z 2506/2606 VRB06KT P6SM FEW250=



000
FTUS45 KLKN 250520
TAFEKO
TAF
KEKO 250520Z 2506/2606 VRB06KT P6SM FEW250=



000
FTUS45 KLKN 250520
TAFELY
TAF
KELY 250520Z 2506/2606 VRB06KT P6SM FEW250=



000
FTUS45 KLKN 250520
TAFTPH
TAF
KTPH 250520Z 2506/2606 VRB06KT P6SM SKC=



000
FTUS45 KLKN 242320
TAFTPH
TAF
KTPH 242320Z 2500/2524 31012G19KT P6SM SKC
     FM250200 32009KT P6SM SKC
     FM250600 01009KT P6SM SKC
     FM251800 32009KT P6SM SKC=



000
FTUS45 KLKN 242320
TAFEKO
TAF
KEKO 242320Z 2500/2524 22007KT P6SM FEW040 FEW250
     FM250300 VRB03KT P6SM SCT250
     FM252000 20007KT P6SM FEW250=



000
FTUS45 KLKN 242320
TAFWMC
TAF
KWMC 242320Z 2500/2524 VRB05KT P6SM FEW250=



000
FTUS45 KLKN 242320
TAFELY
TAF
KELY 242320Z 2500/2524 36009KT P6SM SKC
     FM250400 17009KT P6SM FEW250
     FM251800 02007KT P6SM SKC=



000
FTUS45 KLKN 242320
TAFTPH
TAF
KTPH 242320Z 2500/2524 31012G19KT P6SM SKC
     FM250200 32009KT P6SM SKC
     FM250600 01009KT P6SM SKC
     FM251800 32009KT P6SM SKC=



000
FTUS45 KLKN 242320
TAFWMC
TAF
KWMC 242320Z 2500/2524 VRB05KT P6SM FEW250=



000
FTUS45 KLKN 242320
TAFEKO
TAF
KEKO 242320Z 2500/2524 22007KT P6SM FEW040 FEW250
     FM250300 VRB03KT P6SM SCT250
     FM252000 20007KT P6SM FEW250=



000
FTUS45 KLKN 242320
TAFELY
TAF
KELY 242320Z 2500/2524 36009KT P6SM SKC
     FM250400 17009KT P6SM FEW250
     FM251800 02007KT P6SM SKC=



000
FTUS45 KLKN 241720
TAFEKO
TAF
KEKO 241720Z 2418/2518 22006KT P6SM FEW040 SCT250
     FM250300 VRB03KT P6SM SCT250=



000
FTUS45 KLKN 241720
TAFWMC
TAF
KWMC 241720Z 2418/2518 VRB05KT P6SM SCT250=



000
FTUS45 KLKN 241720
TAFTPH
TAF
KTPH 241720Z 2418/2518 32009KT P6SM FEW250
     FM250600 01009KT P6SM FEW250=



000
FTUS45 KLKN 241720
TAFELY
TAF
KELY 241720Z 2418/2518 VRB05KT P6SM SCT250
     FM242000 01008KT P6SM SCT250
     FM250400 17009KT P6SM FEW250=



000
FTUS45 KLKN 241120
TAFELY
TAF
KELY 241120Z 2412/2512 VRB06KT P6SM FEW200=



000
FTUS45 KLKN 241120
TAFWMC
TAF
KWMC 241120Z 2412/2512 10005KT P6SM FEW200=



000
FTUS45 KLKN 241120
TAFTPH
TAF
KTPH 241120Z 2412/2512 36011KT P6SM SKC=



000
FTUS45 KLKN 241120
TAFWMC
TAF
KWMC 241120Z 2412/2512 10005KT P6SM FEW200=



000
FTUS45 KLKN 241120
TAFELY
TAF
KELY 241120Z 2412/2512 VRB06KT P6SM FEW200=



000
FTUS45 KLKN 241120
TAFTPH
TAF
KTPH 241120Z 2412/2512 36011KT P6SM SKC=



000
FTUS45 KLKN 241120
TAFEKO
TAF
KEKO 241120Z 2412/2512 VRB03KT P6SM FEW200=



000
FTUS45 KLKN 241120
TAFEKO
TAF
KEKO 241120Z 2412/2512 VRB03KT P6SM FEW200=



000
FTUS45 KLKN 240529
TAFEKO
TAF
KEKO 240529Z 2406/2506 VRB03KT P6SM FEW200=



000
FTUS45 KLKN 240529
TAFELY
TAF
KELY 240529Z 2406/2506 VRB06KT P6SM SKC=



000
FTUS45 KLKN 240529
TAFTPH
TAF
KTPH 240529Z 2406/2506 36011KT P6SM SKC=



000
FTUS45 KLKN 240529
TAFWMC
TAF
KWMC 240529Z 2406/2506 10005KT P6SM FEW200=



000
FTUS45 KLKN 240529
TAFEKO
TAF
KEKO 240529Z 2406/2506 VRB03KT P6SM FEW200=



000
FTUS45 KLKN 240529
TAFWMC
TAF
KWMC 240529Z 2406/2506 10005KT P6SM FEW200=



000
FTUS45 KLKN 240529
TAFELY
TAF
KELY 240529Z 2406/2506 VRB06KT P6SM SKC=



000
FTUS45 KLKN 240529
TAFTPH
TAF
KTPH 240529Z 2406/2506 36011KT P6SM SKC=



    US Dept of Commerce
    National Oceanic and Atmospheric Administration
    National Weather Service
    1325 East West Highway
    Silver Spring, MD 20910
    Page Author: NWS Internet Services Team
Disclaimer
Information Quality
Credits
Glossary
Privacy Policy
Freedom of Information Act (FOIA)
About Us
Career Opportunities